KELZ/ELZ METAR and TAF weather

Enter ICAO airport designator
Station Type Date Time Source
KELZ METAR 2020/09/22 03:56 UTC NOAA

KELZ 220356Z AUTO 10003KT 10SM CLR 06/00 A3038 RMK AO2 SLP294 T00610000 $


Station Type Date Time Source
KELZ Decoded METAR 2020/09/22 03:56 UTC NOAA

WELLSVILLE MUNICIPAL AIRPORT, NY, United States (KELZ) 42-06N 077-60W 646M
Sep 21, 2020 - 11:56 PM EDT / 2020.09.22 0356 UTC
Wind: from the E (100 degrees) at 3 MPH (3 KT):0
Visibility: 10 mile(s):0
Sky conditions: clear
Temperature: 43.0 F (6.1 C)
Dew Point: 32.0 F (0.0 C)
Relative Humidity: 64%
Pressure (altimeter): 30.38 in. Hg (1028 hPa)
ob: KELZ 220356Z AUTO 10003KT 10SM CLR 06/00 A3038 RMK AO2 SLP294 T00610000
cycle: 4

Station Type Date Time Source
KELZ TAF UTC NOAA

Error!

Example: see airport list